createdAt,value
2023-05-16T00:01:22.424Z,10.02
2023-05-16T00:03:49.652Z,8.93
2023-05-16T00:06:17.376Z,9.20
2023-05-16T00:08:44.504Z,8.60
2023-05-16T00:11:11.893Z,7.72
2023-05-16T00:13:39.133Z,7.85
2023-05-16T00:16:07.293Z,8.48
2023-05-16T00:18:37.794Z,8.27
2023-05-16T00:21:05.336Z,8.73
2023-05-16T00:23:33.055Z,8.70
2023-05-16T00:26:00.448Z,8.00
2023-05-16T00:28:27.689Z,9.25
2023-05-16T00:30:55.080Z,9.60
2023-05-16T00:33:23.895Z,9.20
2023-05-16T00:35:54.035Z,10.10
2023-05-16T00:38:21.361Z,10.77
2023-05-16T00:40:48.477Z,7.88
2023-05-16T00:43:15.721Z,8.38
2023-05-16T00:45:42.813Z,7.70
2023-05-16T00:48:10.778Z,9.00
2023-05-16T00:50:38.062Z,8.60
2023-05-16T00:53:06.161Z,8.60
2023-05-16T00:55:33.379Z,9.10
2023-05-16T00:58:01.458Z,9.05
2023-05-16T01:00:28.802Z,9.88
2023-05-16T01:02:56.564Z,9.82
2023-05-16T01:05:23.721Z,10.98
2023-05-16T01:07:50.836Z,12.38
2023-05-16T01:10:18.147Z,12.43
2023-05-16T01:13:05.087Z,12.45
2023-05-16T01:15:51.326Z,13.18
2023-05-16T01:18:45.200Z,13.00
2023-05-16T01:21:17.304Z,14.75
2023-05-16T01:24:03.769Z,13.48
2023-05-16T01:26:32.592Z,13.90
2023-05-16T01:29:01.247Z,14.32
2023-05-16T01:31:29.185Z,14.55
2023-05-16T01:33:56.247Z,14.80
2023-05-16T01:36:37.262Z,15.50
2023-05-16T01:39:22.429Z,14.17
2023-05-16T01:42:04.887Z,15.30
2023-05-16T01:44:43.672Z,15.30
2023-05-16T01:47:14.176Z,16.05
2023-05-16T01:49:54.853Z,15.35
2023-05-16T01:52:43.338Z,15.98
2023-05-16T01:55:15.455Z,15.68
2023-05-16T01:57:43.585Z,16.13
2023-05-16T02:00:11.773Z,18.05
2023-05-16T02:02:41.693Z,16.63
2023-05-16T02:05:09.666Z,17.38
2023-05-16T02:07:37.113Z,16.65
2023-05-16T02:10:05.238Z,15.10
2023-05-16T02:12:35.691Z,15.60
2023-05-16T02:15:03.059Z,14.70
2023-05-16T02:17:30.579Z,15.23
2023-05-16T02:19:58.113Z,14.13
2023-05-16T02:22:25.406Z,14.02
2023-05-16T02:24:54.107Z,14.63
2023-05-16T02:27:21.667Z,13.88
2023-05-16T02:29:48.948Z,14.90
2023-05-16T02:32:16.527Z,14.85
2023-05-16T02:34:43.835Z,14.18
2023-05-16T02:37:13.104Z,14.70
2023-05-16T02:39:40.833Z,15.20
2023-05-16T02:42:08.490Z,15.88
2023-05-16T02:44:35.694Z,15.60
2023-05-16T02:47:03.069Z,15.70
2023-05-16T02:49:30.449Z,15.88
2023-05-16T02:51:58.065Z,16.02
2023-05-16T02:54:25.626Z,15.90
2023-05-16T02:56:53.068Z,14.60
2023-05-16T02:59:20.712Z,13.48
2023-05-16T03:01:48.402Z,12.23
2023-05-16T03:04:15.735Z,11.90
2023-05-16T03:06:43.201Z,11.32
2023-05-16T03:09:10.456Z,11.00
2023-05-16T03:11:38.076Z,8.25
2023-05-16T03:14:07.976Z,7.75
2023-05-16T03:16:36.986Z,5.40
2023-05-16T03:19:04.444Z,4.63
2023-05-16T03:21:33.975Z,4.28
2023-05-16T03:24:02.788Z,4.43
2023-05-16T03:26:30.055Z,3.90
2023-05-16T03:28:57.241Z,3.90
2023-05-16T03:31:24.334Z,3.53
2023-05-16T03:33:51.880Z,3.40
2023-05-16T03:36:21.121Z,3.00
2023-05-16T03:38:48.536Z,2.50
2023-05-16T03:41:16.154Z,2.00
2023-05-16T03:43:43.509Z,2.40
2023-05-16T03:46:11.617Z,2.40
2023-05-16T03:48:38.972Z,4.05
2023-05-16T03:51:06.292Z,2.65
2023-05-16T03:53:33.550Z,2.70
2023-05-16T03:56:00.672Z,2.60
2023-05-16T03:58:27.914Z,2.70
2023-05-16T04:00:55.660Z,2.40
2023-05-16T04:03:28.846Z,2.58
2023-05-16T04:05:56.785Z,2.42
2023-05-16T04:08:24.030Z,3.78
2023-05-16T04:10:51.458Z,4.88
2023-05-16T04:13:19.189Z,1.98
2023-05-16T04:15:47.681Z,1.40
2023-05-16T04:18:14.862Z,1.00
2023-05-16T04:20:47.795Z,1.00
2023-05-16T04:23:15.143Z,0.68
2023-05-16T04:25:43.197Z,0.40
2023-05-16T04:28:13.782Z,0.70
2023-05-16T04:30:41.015Z,0.50
2023-05-16T04:33:08.848Z,0.47
2023-05-16T04:35:37.905Z,0.50
2023-05-16T04:38:05.122Z,0.40
2023-05-16T14:11:33.091Z,17.90
2023-05-16T14:14:00.433Z,15.15
2023-05-16T14:16:27.739Z,14.90
2023-05-16T14:18:55.004Z,13.65
2023-05-16T14:21:23.380Z,16.25
2023-05-16T14:23:50.780Z,15.60
2023-05-16T14:26:22.776Z,14.95
2023-05-16T14:28:50.097Z,14.52
2023-05-16T14:31:17.325Z,16.25
2023-05-16T14:33:44.526Z,15.50
2023-05-16T14:36:11.806Z,14.13
2023-05-16T14:38:39.001Z,16.45
2023-05-16T14:41:06.581Z,16.20
2023-05-16T14:43:33.859Z,14.75
2023-05-16T14:46:01.115Z,13.88
2023-05-16T14:48:28.417Z,12.88
2023-05-16T14:50:55.641Z,13.38
2023-05-16T14:53:23.570Z,12.27
2023-05-16T14:55:50.863Z,11.43
2023-05-16T14:58:18.111Z,17.02
2023-05-16T15:00:45.553Z,11.85
2023-05-16T15:03:15.062Z,13.77
2023-05-16T15:05:43.026Z,15.63
2023-05-16T15:08:10.561Z,15.60
2023-05-16T15:10:37.700Z,11.90
2023-05-16T15:13:05.390Z,16.05
2023-05-16T15:15:33.309Z,16.25
2023-05-16T15:18:00.757Z,15.60
2023-05-16T15:20:28.437Z,15.40
2023-05-16T15:22:55.831Z,15.07
2023-05-16T15:25:23.028Z,15.25
2023-05-16T15:27:50.274Z,11.60
2023-05-16T15:30:17.484Z,13.18
2023-05-16T15:32:45.015Z,11.20
2023-05-16T15:35:12.173Z,10.00
2023-05-16T15:37:42.864Z,15.45
2023-05-16T16:15:33.611Z,12.85
2023-05-16T16:18:01.601Z,10.80
2023-05-16T16:20:29.136Z,12.85
2023-05-16T16:22:56.540Z,13.70
2023-05-16T16:25:23.599Z,9.50
2023-05-16T16:27:51.906Z,8.02
2023-05-16T16:30:19.038Z,9.95
2023-05-16T16:32:48.899Z,17.02
2023-05-16T16:35:16.283Z,13.35
2023-05-16T16:37:54.584Z,12.40
2023-05-16T16:40:30.768Z,15.50
2023-05-16T16:47:52.720Z,12.70
2023-05-16T16:50:19.909Z,18.58
2023-05-16T16:52:47.993Z,10.18
2023-05-16T16:55:15.224Z,13.65
2023-05-16T16:57:42.916Z,14.00
2023-05-16T17:00:14.400Z,17.35
2023-05-16T17:02:42.010Z,12.55
2023-05-16T17:05:10.319Z,17.45
2023-05-16T17:07:37.727Z,14.60
2023-05-16T17:10:05.533Z,15.40
2023-05-16T17:12:34.804Z,14.65
2023-05-16T17:15:02.758Z,15.20
2023-05-16T17:17:29.862Z,16.40
2023-05-16T17:19:57.228Z,14.40
2023-05-16T17:22:24.572Z,12.35
2023-05-16T17:24:52.321Z,10.35
2023-05-16T17:27:19.478Z,8.38
2023-05-16T17:29:46.585Z,12.15
2023-05-16T17:32:13.937Z,5.82
2023-05-16T17:34:41.015Z,6.57
2023-05-16T17:37:10.772Z,8.43
2023-05-16T17:39:40.138Z,5.65
2023-05-16T17:42:07.904Z,7.88
2023-05-16T17:44:36.412Z,9.88
2023-05-16T17:47:04.716Z,6.43
2023-05-16T17:49:31.885Z,7.60
2023-05-16T17:52:00.836Z,8.75
2023-05-16T17:54:31.204Z,10.52
2023-05-16T17:56:58.834Z,6.68
2023-05-16T17:59:27.685Z,6.68
2023-05-16T18:01:58.106Z,7.13
2023-05-16T18:04:26.026Z,9.95
2023-05-16T18:06:53.342Z,9.00
2023-05-16T18:09:21.039Z,7.20
2023-05-16T18:11:48.224Z,7.95
2023-05-16T18:14:17.849Z,8.55
2023-05-16T18:16:49.203Z,9.82
2023-05-16T18:31:14.542Z,6.60
2023-05-16T18:33:42.588Z,8.00
2023-05-16T18:36:10.093Z,9.75
2023-05-16T18:38:37.217Z,9.05
2023-05-16T18:41:04.443Z,6.10
2023-05-16T18:43:35.385Z,7.53
2023-05-16T18:46:41.766Z,9.77
2023-05-16T18:49:08.880Z,9.75
2023-05-16T18:51:36.542Z,13.48
2023-05-16T18:54:06.838Z,10.65
2023-05-16T18:56:34.873Z,8.15
2023-05-16T18:59:02.060Z,10.13
2023-05-16T19:01:29.302Z,9.73
2023-05-16T19:03:56.954Z,11.75
2023-05-16T19:06:24.204Z,7.75
2023-05-16T19:08:51.613Z,7.47
2023-05-16T19:11:18.831Z,10.07
2023-05-16T19:13:46.134Z,6.65
2023-05-16T19:16:13.418Z,6.40
2023-05-16T19:18:40.848Z,13.52
2023-05-16T19:21:08.160Z,11.57
2023-05-16T19:23:35.387Z,11.80
2023-05-16T19:26:02.420Z,12.30
2023-05-16T19:28:30.740Z,12.35
2023-05-16T19:30:58.213Z,9.02
2023-05-16T19:33:29.206Z,8.23
2023-05-16T19:35:57.918Z,8.32
2023-05-16T19:38:26.034Z,11.65
2023-05-16T19:40:53.798Z,11.77
2023-05-16T19:43:22.136Z,11.68
2023-05-16T19:45:50.416Z,17.55
2023-05-16T19:48:20.202Z,13.48
2023-05-16T19:50:47.484Z,9.40
2023-05-16T19:53:14.697Z,8.60
2023-05-16T19:55:41.897Z,11.35
2023-05-16T19:58:09.493Z,8.25
2023-05-16T20:00:37.187Z,14.05
2023-05-16T20:03:04.509Z,9.05
2023-05-16T20:05:31.635Z,11.13
2023-05-16T20:07:59.340Z,15.70
2023-05-16T20:10:26.719Z,15.38
2023-05-16T20:12:53.814Z,9.52
2023-05-16T20:15:21.642Z,13.23
2023-05-16T20:17:49.084Z,12.30
2023-05-16T20:20:16.589Z,14.18
2023-05-16T20:22:43.863Z,15.15
2023-05-16T20:25:11.959Z,13.25
2023-05-16T20:27:39.507Z,12.55
2023-05-16T20:30:07.857Z,10.85
2023-05-16T20:32:35.126Z,9.73
2023-05-16T20:35:04.584Z,13.65
2023-05-16T20:37:31.754Z,11.85
2023-05-16T20:39:58.840Z,10.85
2023-05-16T20:42:26.100Z,16.30
2023-05-16T20:44:53.213Z,18.75
2023-05-16T20:47:20.596Z,10.95
2023-05-16T20:49:47.865Z,10.38
2023-05-16T20:52:15.121Z,14.77
2023-05-16T20:54:42.412Z,10.48
2023-05-16T20:57:09.648Z,15.75
2023-05-16T20:59:37.883Z,13.63
2023-05-16T21:02:06.402Z,19.05
2023-05-16T21:04:39.477Z,20.50
2023-05-16T21:07:08.333Z,13.65
2023-05-16T21:09:37.186Z,18.02
2023-05-16T21:12:04.896Z,16.27
2023-05-16T21:14:32.013Z,13.98
2023-05-16T21:16:59.105Z,10.15
2023-05-16T21:19:26.733Z,18.85
